Terminal Aerodrome Forecast
Issued by NWS

Home | Current Version | Previous Version | Text Only | Print | Product List | Glossary On
Versions: 1 2 3 4 5 6 7 8 9 10 11 12 13 14 15 16
000
FTUS43 KPAH 132324
TAFOWB
TAF
KOWB 132324Z 1400/1424 24014KT P6SM BKN070
     FM140200 27012KT P6SM SCT040
     FM140500 30011G20KT P6SM BKN028
     FM141200 35007KT P6SM SCT028
     FM141700 36005KT P6SM BKN080=

USA.gov is the U.S. government's official web portal to all federal, state and local government web resources and services.